sensor_id;sensor_type;location;lat;lon;timestamp;P1;durP1;ratioP1;P2;durP2;ratioP2
3297;SDS011;1661;53.572;10.174;2023-06-26T00:01:52;11.80;;;10.70;;
3297;SDS011;1661;53.572;10.174;2023-06-26T00:04:19;13.67;;;12.67;;
3297;SDS011;1661;53.572;10.174;2023-06-26T00:06:46;13.17;;;11.97;;
3297;SDS011;1661;53.572;10.174;2023-06-26T00:09:14;12.40;;;11.40;;
3297;SDS011;1661;53.572;10.174;2023-06-26T00:11:41;12.77;;;11.73;;
3297;SDS011;1661;53.572;10.174;2023-06-26T00:14:07;13.17;;;12.03;;
3297;SDS011;1661;53.572;10.174;2023-06-26T00:16:34;12.90;;;11.80;;
3297;SDS011;1661;53.572;10.174;2023-06-26T00:19:01;11.23;;;10.13;;
3297;SDS011;1661;53.572;10.174;2023-06-26T00:21:28;14.30;;;13.10;;
3297;SDS011;1661;53.572;10.174;2023-06-26T00:23:55;18.03;;;12.83;;
3297;SDS011;1661;53.572;10.174;2023-06-26T00:26:23;12.10;;;11.07;;
3297;SDS011;1661;53.572;10.174;2023-06-26T00:28:50;13.77;;;11.90;;
3297;SDS011;1661;53.572;10.174;2023-06-26T00:31:17;11.47;;;10.57;;
3297;SDS011;1661;53.572;10.174;2023-06-26T00:33:43;14.47;;;13.23;;
3297;SDS011;1661;53.572;10.174;2023-06-26T00:36:10;11.30;;;10.30;;
3297;SDS011;1661;53.572;10.174;2023-06-26T00:38:37;12.40;;;11.40;;
3297;SDS011;1661;53.572;10.174;2023-06-26T00:41:04;13.50;;;12.40;;
3297;SDS011;1661;53.572;10.174;2023-06-26T00:43:38;12.50;;;11.40;;
3297;SDS011;1661;53.572;10.174;2023-06-26T00:46:06;15.70;;;14.20;;
3297;SDS011;1661;53.572;10.174;2023-06-26T00:48:36;13.60;;;12.53;;
3297;SDS011;1661;53.572;10.174;2023-06-26T00:51:03;12.70;;;11.70;;
3297;SDS011;1661;53.572;10.174;2023-06-26T00:53:30;15.23;;;14.03;;
3297;SDS011;1661;53.572;10.174;2023-06-26T00:55:57;13.97;;;12.97;;
3297;SDS011;1661;53.572;10.174;2023-06-26T00:58:25;14.17;;;12.97;;
3297;SDS011;1661;53.572;10.174;2023-06-26T01:00:53;16.73;;;15.40;;
3297;SDS011;1661;53.572;10.174;2023-06-26T01:03:21;14.23;;;13.03;;
3297;SDS011;1661;53.572;10.174;2023-06-26T01:05:50;12.80;;;11.90;;
3297;SDS011;1661;53.572;10.174;2023-06-26T01:08:18;14.10;;;12.97;;
3297;SDS011;1661;53.572;10.174;2023-06-26T01:10:45;12.07;;;11.03;;
3297;SDS011;1661;53.572;10.174;2023-06-26T01:13:13;14.53;;;13.23;;
3297;SDS011;1661;53.572;10.174;2023-06-26T01:15:41;20.53;;;15.37;;
3297;SDS011;1661;53.572;10.174;2023-06-26T01:18:09;16.77;;;15.30;;
3297;SDS011;1661;53.572;10.174;2023-06-26T01:20:36;14.00;;;12.60;;
3297;SDS011;1661;53.572;10.174;2023-06-26T01:23:07;14.17;;;11.73;;
3297;SDS011;1661;53.572;10.174;2023-06-26T01:25:49;15.50;;;12.90;;
3297;SDS011;1661;53.572;10.174;2023-06-26T01:28:23;13.67;;;12.40;;
3297;SDS011;1661;53.572;10.174;2023-06-26T01:30:51;12.17;;;11.27;;
3297;SDS011;1661;53.572;10.174;2023-06-26T01:33:18;13.37;;;12.23;;
3297;SDS011;1661;53.572;10.174;2023-06-26T01:35:45;12.20;;;11.20;;
3297;SDS011;1661;53.572;10.174;2023-06-26T01:38:13;12.73;;;11.60;;
3297;SDS011;1661;53.572;10.174;2023-06-26T01:40:41;13.37;;;12.17;;
3297;SDS011;1661;53.572;10.174;2023-06-26T01:43:12;13.23;;;12.20;;
3297;SDS011;1661;53.572;10.174;2023-06-26T01:45:44;13.37;;;12.30;;
3297;SDS011;1661;53.572;10.174;2023-06-26T01:48:14;12.70;;;11.60;;
3297;SDS011;1661;53.572;10.174;2023-06-26T01:50:47;11.63;;;10.63;;
3297;SDS011;1661;53.572;10.174;2023-06-26T01:53:16;13.60;;;12.50;;
3297;SDS011;1661;53.572;10.174;2023-06-26T01:55:47;13.60;;;12.50;;
3297;SDS011;1661;53.572;10.174;2023-06-26T01:58:17;11.57;;;10.57;;
3297;SDS011;1661;53.572;10.174;2023-06-26T02:00:49;17.00;;;14.87;;
3297;SDS011;1661;53.572;10.174;2023-06-26T02:03:16;13.40;;;12.10;;
3297;SDS011;1661;53.572;10.174;2023-06-26T02:05:43;12.37;;;11.37;;
3297;SDS011;1661;53.572;10.174;2023-06-26T02:08:10;11.77;;;10.77;;
3297;SDS011;1661;53.572;10.174;2023-06-26T02:10:39;12.37;;;11.20;;
3297;SDS011;1661;53.572;10.174;2023-06-26T02:13:06;13.97;;;12.70;;
3297;SDS011;1661;53.572;10.174;2023-06-26T02:15:32;12.37;;;11.17;;
3297;SDS011;1661;53.572;10.174;2023-06-26T02:18:00;16.10;;;13.20;;
3297;SDS011;1661;53.572;10.174;2023-06-26T02:20:27;10.30;;;9.50;;
3297;SDS011;1661;53.572;10.174;2023-06-26T02:22:54;11.03;;;10.20;;
3297;SDS011;1661;53.572;10.174;2023-06-26T02:25:21;14.37;;;13.17;;
3297;SDS011;1661;53.572;10.174;2023-06-26T02:27:48;13.07;;;11.80;;
3297;SDS011;1661;53.572;10.174;2023-06-26T02:30:15;13.33;;;12.03;;
3297;SDS011;1661;53.572;10.174;2023-06-26T02:32:42;12.40;;;11.40;;
3297;SDS011;1661;53.572;10.174;2023-06-26T02:35:10;10.90;;;10.10;;
3297;SDS011;1661;53.572;10.174;2023-06-26T02:37:37;12.87;;;11.77;;
3297;SDS011;1661;53.572;10.174;2023-06-26T02:40:04;13.10;;;11.80;;
3297;SDS011;1661;53.572;10.174;2023-06-26T02:42:32;11.33;;;10.33;;
3297;SDS011;1661;53.572;10.174;2023-06-26T02:45:00;11.70;;;10.57;;
3297;SDS011;1661;53.572;10.174;2023-06-26T02:47:27;13.30;;;12.20;;
3297;SDS011;1661;53.572;10.174;2023-06-26T02:49:54;13.10;;;11.33;;
3297;SDS011;1661;53.572;10.174;2023-06-26T02:52:22;11.33;;;10.53;;
3297;SDS011;1661;53.572;10.174;2023-06-26T02:54:49;12.07;;;10.97;;
3297;SDS011;1661;53.572;10.174;2023-06-26T02:57:16;11.50;;;10.30;;
3297;SDS011;1661;53.572;10.174;2023-06-26T02:59:42;11.37;;;10.43;;
3297;SDS011;1661;53.572;10.174;2023-06-26T03:02:09;10.07;;;9.17;;
3297;SDS011;1661;53.572;10.174;2023-06-26T03:04:36;12.70;;;11.60;;
3297;SDS011;1661;53.572;10.174;2023-06-26T03:07:03;14.53;;;12.30;;
3297;SDS011;1661;53.572;10.174;2023-06-26T03:09:31;11.07;;;10.27;;
3297;SDS011;1661;53.572;10.174;2023-06-26T03:11:58;10.70;;;9.60;;
3297;SDS011;1661;53.572;10.174;2023-06-26T03:14:25;11.63;;;10.63;;
3297;SDS011;1661;53.572;10.174;2023-06-26T03:16:53;9.60;;;9.00;;
3297;SDS011;1661;53.572;10.174;2023-06-26T03:19:22;11.53;;;10.53;;
3297;SDS011;1661;53.572;10.174;2023-06-26T03:21:49;10.97;;;9.93;;
3297;SDS011;1661;53.572;10.174;2023-06-26T03:24:16;11.70;;;10.80;;
3297;SDS011;1661;53.572;10.174;2023-06-26T03:26:44;11.23;;;10.33;;
3297;SDS011;1661;53.572;10.174;2023-06-26T03:29:11;13.83;;;12.53;;
3297;SDS011;1661;53.572;10.174;2023-06-26T03:31:38;12.13;;;11.13;;
3297;SDS011;1661;53.572;10.174;2023-06-26T03:34:04;11.90;;;10.93;;
3297;SDS011;1661;53.572;10.174;2023-06-26T03:36:31;13.10;;;11.97;;
3297;SDS011;1661;53.572;10.174;2023-06-26T03:38:58;11.43;;;10.50;;
3297;SDS011;1661;53.572;10.174;2023-06-26T03:41:26;12.87;;;11.53;;
3297;SDS011;1661;53.572;10.174;2023-06-26T03:43:54;14.13;;;12.97;;
3297;SDS011;1661;53.572;10.174;2023-06-26T03:46:21;16.00;;;14.50;;
3297;SDS011;1661;53.572;10.174;2023-06-26T03:48:48;13.53;;;12.23;;
3297;SDS011;1661;53.572;10.174;2023-06-26T03:51:15;13.37;;;12.20;;
3297;SDS011;1661;53.572;10.174;2023-06-26T03:53:42;13.90;;;12.60;;
3297;SDS011;1661;53.572;10.174;2023-06-26T03:56:09;13.90;;;12.37;;
3297;SDS011;1661;53.572;10.174;2023-06-26T03:58:35;14.30;;;12.90;;
3297;SDS011;1661;53.572;10.174;2023-06-26T04:01:03;13.13;;;12.03;;
3297;SDS011;1661;53.572;10.174;2023-06-26T04:03:30;9.83;;;9.00;;
3297;SDS011;1661;53.572;10.174;2023-06-26T04:05:57;13.30;;;11.93;;
3297;SDS011;1661;53.572;10.174;2023-06-26T04:08:24;19.10;;;12.43;;
3297;SDS011;1661;53.572;10.174;2023-06-26T04:10:51;9.57;;;8.77;;
3297;SDS011;1661;53.572;10.174;2023-06-26T04:13:18;13.50;;;12.40;;
3297;SDS011;1661;53.572;10.174;2023-06-26T04:15:45;13.80;;;12.47;;
3297;SDS011;1661;53.572;10.174;2023-06-26T04:18:13;12.80;;;11.70;;
3297;SDS011;1661;53.572;10.174;2023-06-26T04:20:41;14.80;;;11.90;;
3297;SDS011;1661;53.572;10.174;2023-06-26T04:23:31;13.77;;;12.57;;
3297;SDS011;1661;53.572;10.174;2023-06-26T04:25:58;12.97;;;11.87;;
3297;SDS011;1661;53.572;10.174;2023-06-26T04:28:25;12.67;;;11.60;;
3297;SDS011;1661;53.572;10.174;2023-06-26T04:30:52;15.07;;;13.57;;
3297;SDS011;1661;53.572;10.174;2023-06-26T04:33:19;13.07;;;11.87;;
3297;SDS011;1661;53.572;10.174;2023-06-26T04:35:46;13.83;;;12.43;;
3297;SDS011;1661;53.572;10.174;2023-06-26T04:38:13;14.63;;;12.30;;
3297;SDS011;1661;53.572;10.174;2023-06-26T04:40:42;17.40;;;12.47;;
3297;SDS011;1661;53.572;10.174;2023-06-26T04:43:08;14.27;;;12.87;;
3297;SDS011;1661;53.572;10.174;2023-06-26T04:45:35;12.50;;;11.30;;
3297;SDS011;1661;53.572;10.174;2023-06-26T04:48:02;15.37;;;12.10;;
3297;SDS011;1661;53.572;10.174;2023-06-26T04:50:30;14.80;;;13.27;;
3297;SDS011;1661;53.572;10.174;2023-06-26T04:52:58;18.10;;;12.00;;
3297;SDS011;1661;53.572;10.174;2023-06-26T04:55:26;12.63;;;11.40;;
3297;SDS011;1661;53.572;10.174;2023-06-26T04:57:54;13.20;;;11.90;;
3297;SDS011;1661;53.572;10.174;2023-06-26T05:00:21;13.80;;;12.40;;
3297;SDS011;1661;53.572;10.174;2023-06-26T05:02:49;12.33;;;10.50;;
3297;SDS011;1661;53.572;10.174;2023-06-26T05:05:24;16.93;;;13.30;;
3297;SDS011;1661;53.572;10.174;2023-06-26T05:07:52;20.33;;;11.80;;
3297;SDS011;1661;53.572;10.174;2023-06-26T05:10:18;13.23;;;12.10;;
3297;SDS011;1661;53.572;10.174;2023-06-26T05:12:45;12.67;;;11.10;;
3297;SDS011;1661;53.572;10.174;2023-06-26T05:15:13;12.07;;;11.03;;
3297;SDS011;1661;53.572;10.174;2023-06-26T05:17:40;12.07;;;10.97;;
3297;SDS011;1661;53.572;10.174;2023-06-26T05:20:07;12.73;;;11.53;;
3297;SDS011;1661;53.572;10.174;2023-06-26T05:22:35;11.37;;;10.27;;
3297;SDS011;1661;53.572;10.174;2023-06-26T05:25:04;12.23;;;11.03;;
3297;SDS011;1661;53.572;10.174;2023-06-26T05:27:33;14.00;;;11.20;;
3297;SDS011;1661;53.572;10.174;2023-06-26T05:30:00;12.23;;;10.90;;
3297;SDS011;1661;53.572;10.174;2023-06-26T05:32:29;12.73;;;11.50;;
3297;SDS011;1661;53.572;10.174;2023-06-26T05:34:59;12.23;;;11.13;;
3297;SDS011;1661;53.572;10.174;2023-06-26T05:37:27;13.50;;;11.20;;
3297;SDS011;1661;53.572;10.174;2023-06-26T05:39:55;15.90;;;12.43;;
3297;SDS011;1661;53.572;10.174;2023-06-26T05:42:22;11.47;;;10.43;;
3297;SDS011;1661;53.572;10.174;2023-06-26T05:44:49;12.47;;;11.37;;
3297;SDS011;1661;53.572;10.174;2023-06-26T05:47:16;12.30;;;11.10;;
3297;SDS011;1661;53.572;10.174;2023-06-26T05:49:44;15.43;;;9.63;;
3297;SDS011;1661;53.572;10.174;2023-06-26T05:52:11;22.63;;;10.87;;
3297;SDS011;1661;53.572;10.174;2023-06-26T05:54:39;12.53;;;11.23;;
3297;SDS011;1661;53.572;10.174;2023-06-26T05:57:06;12.57;;;11.03;;
3297;SDS011;1661;53.572;10.174;2023-06-26T05:59:33;11.73;;;10.60;;
3297;SDS011;1661;53.572;10.174;2023-06-26T06:02:04;10.30;;;9.50;;
3297;SDS011;1661;53.572;10.174;2023-06-26T06:04:31;11.63;;;10.50;;
3297;SDS011;1661;53.572;10.174;2023-06-26T06:06:59;11.57;;;10.03;;
3297;SDS011;1661;53.572;10.174;2023-06-26T06:09:26;8.77;;;8.03;;
3297;SDS011;1661;53.572;10.174;2023-06-26T06:11:53;12.93;;;10.27;;
3297;SDS011;1661;53.572;10.174;2023-06-26T06:14:19;10.40;;;9.50;;
3297;SDS011;1661;53.572;10.174;2023-06-26T06:16:46;10.57;;;9.47;;
3297;SDS011;1661;53.572;10.174;2023-06-26T06:19:13;10.73;;;9.73;;
3297;SDS011;1661;53.572;10.174;2023-06-26T06:21:39;11.37;;;10.27;;
3297;SDS011;1661;53.572;10.174;2023-06-26T06:24:09;10.40;;;9.60;;
3297;SDS011;1661;53.572;10.174;2023-06-26T06:26:36;12.10;;;10.37;;
3297;SDS011;1661;53.572;10.174;2023-06-26T06:29:03;9.43;;;7.83;;
3297;SDS011;1661;53.572;10.174;2023-06-26T06:31:29;10.73;;;9.83;;
3297;SDS011;1661;53.572;10.174;2023-06-26T06:33:56;10.50;;;9.60;;
3297;SDS011;1661;53.572;10.174;2023-06-26T06:36:23;11.10;;;9.60;;
3297;SDS011;1661;53.572;10.174;2023-06-26T06:38:50;11.47;;;10.47;;
3297;SDS011;1661;53.572;10.174;2023-06-26T06:41:18;10.97;;;10.03;;
3297;SDS011;1661;53.572;10.174;2023-06-26T06:43:45;19.47;;;12.70;;
3297;SDS011;1661;53.572;10.174;2023-06-26T06:46:12;11.63;;;10.53;;
3297;SDS011;1661;53.572;10.174;2023-06-26T06:48:39;11.43;;;10.43;;
3297;SDS011;1661;53.572;10.174;2023-06-26T06:51:05;10.00;;;8.80;;
3297;SDS011;1661;53.572;10.174;2023-06-26T06:53:32;10.60;;;9.50;;
3297;SDS011;1661;53.572;10.174;2023-06-26T06:55:59;10.87;;;9.87;;
3297;SDS011;1661;53.572;10.174;2023-06-26T06:58:27;10.10;;;9.13;;
3297;SDS011;1661;53.572;10.174;2023-06-26T07:00:54;11.47;;;10.40;;
3297;SDS011;1661;53.572;10.174;2023-06-26T07:03:21;10.47;;;9.67;;
3297;SDS011;1661;53.572;10.174;2023-06-26T07:05:47;21.53;;;12.20;;
3297;SDS011;1661;53.572;10.174;2023-06-26T07:08:14;11.33;;;8.80;;
3297;SDS011;1661;53.572;10.174;2023-06-26T07:10:41;17.00;;;12.20;;
3297;SDS011;1661;53.572;10.174;2023-06-26T07:13:08;15.50;;;10.87;;
3297;SDS011;1661;53.572;10.174;2023-06-26T07:15:37;10.70;;;9.70;;
3297;SDS011;1661;53.572;10.174;2023-06-26T07:18:04;11.23;;;10.03;;
3297;SDS011;1661;53.572;10.174;2023-06-26T07:20:31;11.83;;;10.87;;
3297;SDS011;1661;53.572;10.174;2023-06-26T07:22:57;10.77;;;9.87;;
3297;SDS011;1661;53.572;10.174;2023-06-26T07:25:24;10.97;;;10.07;;
3297;SDS011;1661;53.572;10.174;2023-06-26T07:27:51;10.30;;;9.00;;
3297;SDS011;1661;53.572;10.174;2023-06-26T07:30:17;11.10;;;10.00;;
3297;SDS011;1661;53.572;10.174;2023-06-26T07:32:46;11.13;;;8.97;;
3297;SDS011;1661;53.572;10.174;2023-06-26T07:35:12;9.90;;;9.20;;
3297;SDS011;1661;53.572;10.174;2023-06-26T07:37:39;11.90;;;10.30;;
3297;SDS011;1661;53.572;10.174;2023-06-26T07:40:07;10.60;;;9.67;;
3297;SDS011;1661;53.572;10.174;2023-06-26T07:42:34;10.63;;;9.73;;
3297;SDS011;1661;53.572;10.174;2023-06-26T07:45:01;11.00;;;9.50;;
3297;SDS011;1661;53.572;10.174;2023-06-26T07:47:34;12.70;;;8.60;;
3297;SDS011;1661;53.572;10.174;2023-06-26T07:50:03;9.70;;;9.00;;
3297;SDS011;1661;53.572;10.174;2023-06-26T07:52:30;10.83;;;9.77;;
3297;SDS011;1661;53.572;10.174;2023-06-26T07:54:57;10.57;;;9.67;;
3297;SDS011;1661;53.572;10.174;2023-06-26T07:57:23;10.23;;;8.70;;
3297;SDS011;1661;53.572;10.174;2023-06-26T07:59:50;11.23;;;9.90;;
3297;SDS011;1661;53.572;10.174;2023-06-26T08:02:17;10.43;;;9.47;;
3297;SDS011;1661;53.572;10.174;2023-06-26T08:04:44;11.43;;;9.97;;
3297;SDS011;1661;53.572;10.174;2023-06-26T08:07:12;9.23;;;8.53;;
3297;SDS011;1661;53.572;10.174;2023-06-26T08:09:39;10.83;;;9.33;;
3297;SDS011;1661;53.572;10.174;2023-06-26T08:12:07;10.57;;;9.60;;
3297;SDS011;1661;53.572;10.174;2023-06-26T08:14:33;9.43;;;8.70;;
3297;SDS011;1661;53.572;10.174;2023-06-26T08:17:00;9.70;;;8.80;;
3297;SDS011;1661;53.572;10.174;2023-06-26T08:19:27;10.37;;;9.30;;
3297;SDS011;1661;53.572;10.174;2023-06-26T08:21:54;9.93;;;9.13;;
3297;SDS011;1661;53.572;10.174;2023-06-26T08:24:22;10.20;;;9.23;;
3297;SDS011;1661;53.572;10.174;2023-06-26T08:26:48;10.27;;;9.40;;
3297;SDS011;1661;53.572;10.174;2023-06-26T08:29:15;10.70;;;9.80;;
3297;SDS011;1661;53.572;10.174;2023-06-26T08:31:42;9.30;;;8.50;;
3297;SDS011;1661;53.572;10.174;2023-06-26T08:34:09;10.40;;;9.60;;
3297;SDS011;1661;53.572;10.174;2023-06-26T08:36:36;10.57;;;9.70;;
3297;SDS011;1661;53.572;10.174;2023-06-26T08:39:03;9.57;;;8.87;;
3297;SDS011;1661;53.572;10.174;2023-06-26T08:41:32;11.50;;;10.40;;
3297;SDS011;1661;53.572;10.174;2023-06-26T08:43:59;9.97;;;9.17;;
3297;SDS011;1661;53.572;10.174;2023-06-26T08:46:26;11.07;;;10.17;;
3297;SDS011;1661;53.572;10.174;2023-06-26T08:48:54;11.27;;;10.37;;
3297;SDS011;1661;53.572;10.174;2023-06-26T08:51:23;11.17;;;10.07;;
3297;SDS011;1661;53.572;10.174;2023-06-26T08:53:52;10.60;;;9.80;;
3297;SDS011;1661;53.572;10.174;2023-06-26T08:56:23;11.17;;;9.77;;
3297;SDS011;1661;53.572;10.174;2023-06-26T08:58:53;10.70;;;9.73;;
3297;SDS011;1661;53.572;10.174;2023-06-26T09:01:21;10.00;;;9.10;;
3297;SDS011;1661;53.572;10.174;2023-06-26T09:03:49;10.70;;;9.80;;
3297;SDS011;1661;53.572;10.174;2023-06-26T09:06:16;18.10;;;11.67;;
3297;SDS011;1661;53.572;10.174;2023-06-26T09:08:44;10.10;;;9.20;;
3297;SDS011;1661;53.572;10.174;2023-06-26T09:11:10;9.80;;;8.93;;
3297;SDS011;1661;53.572;10.174;2023-06-26T09:13:37;12.03;;;9.93;;
3297;SDS011;1661;53.572;10.174;2023-06-26T09:16:07;10.40;;;9.47;;
3297;SDS011;1661;53.572;10.174;2023-06-26T09:18:34;18.43;;;10.13;;
3297;SDS011;1661;53.572;10.174;2023-06-26T09:21:06;9.90;;;9.10;;
3297;SDS011;1661;53.572;10.174;2023-06-26T09:23:33;10.47;;;9.57;;
3297;SDS011;1661;53.572;10.174;2023-06-26T09:26:01;11.03;;;10.03;;
3297;SDS011;1661;53.572;10.174;2023-06-26T09:28:29;13.13;;;12.03;;
3297;SDS011;1661;53.572;10.174;2023-06-26T09:31:00;12.33;;;11.23;;
3297;SDS011;1661;53.572;10.174;2023-06-26T09:33:32;19.00;;;12.10;;
3297;SDS011;1661;53.572;10.174;2023-06-26T09:36:00;13.80;;;11.33;;
3297;SDS011;1661;53.572;10.174;2023-06-26T09:38:28;12.97;;;11.77;;
3297;SDS011;1661;53.572;10.174;2023-06-26T09:40:55;12.50;;;11.40;;
3297;SDS011;1661;53.572;10.174;2023-06-26T09:43:21;13.23;;;11.50;;
3297;SDS011;1661;53.572;10.174;2023-06-26T09:45:51;16.23;;;13.80;;
3297;SDS011;1661;53.572;10.174;2023-06-26T09:48:19;14.07;;;12.43;;
3297;SDS011;1661;53.572;10.174;2023-06-26T09:50:47;18.10;;;13.10;;
3297;SDS011;1661;53.572;10.174;2023-06-26T09:53:14;19.40;;;14.33;;
3297;SDS011;1661;53.572;10.174;2023-06-26T09:55:43;15.00;;;13.70;;
3297;SDS011;1661;53.572;10.174;2023-06-26T09:58:12;13.70;;;11.60;;
3297;SDS011;1661;53.572;10.174;2023-06-26T10:00:40;14.50;;;12.97;;
3297;SDS011;1661;53.572;10.174;2023-06-26T10:03:07;16.93;;;11.70;;
3297;SDS011;1661;53.572;10.174;2023-06-26T10:05:34;18.67;;;13.03;;
3297;SDS011;1661;53.572;10.174;2023-06-26T10:08:02;16.83;;;12.73;;
3297;SDS011;1661;53.572;10.174;2023-06-26T10:10:31;14.67;;;13.17;;
3297;SDS011;1661;53.572;10.174;2023-06-26T10:13:01;17.97;;;15.00;;
3297;SDS011;1661;53.572;10.174;2023-06-26T10:15:33;23.53;;;15.13;;
3297;SDS011;1661;53.572;10.174;2023-06-26T10:18:00;11.93;;;10.77;;
3297;SDS011;1661;53.572;10.174;2023-06-26T10:20:27;14.50;;;13.13;;
3297;SDS011;1661;53.572;10.174;2023-06-26T10:22:55;17.93;;;12.90;;
3297;SDS011;1661;53.572;10.174;2023-06-26T10:25:27;16.23;;;13.60;;
3297;SDS011;1661;53.572;10.174;2023-06-26T10:27:57;21.40;;;19.20;;
3297;SDS011;1661;53.572;10.174;2023-06-26T10:30:26;17.40;;;15.63;;
3297;SDS011;1661;53.572;10.174;2023-06-26T10:32:55;18.00;;;16.30;;
3297;SDS011;1661;53.572;10.174;2023-06-26T10:35:23;19.53;;;16.97;;
3297;SDS011;1661;53.572;10.174;2023-06-26T10:37:51;21.97;;;19.20;;
3297;SDS011;1661;53.572;10.174;2023-06-26T10:40:21;28.70;;;18.67;;
3297;SDS011;1661;53.572;10.174;2023-06-26T10:42:50;19.13;;;17.13;;
3297;SDS011;1661;53.572;10.174;2023-06-26T10:45:17;18.37;;;16.27;;
3297;SDS011;1661;53.572;10.174;2023-06-26T10:47:46;14.10;;;12.67;;
3297;SDS011;1661;53.572;10.174;2023-06-26T10:50:17;14.73;;;12.23;;
3297;SDS011;1661;53.572;10.174;2023-06-26T10:52:45;10.87;;;9.80;;
3297;SDS011;1661;53.572;10.174;2023-06-26T10:55:32;12.00;;;10.80;;
3297;SDS011;1661;53.572;10.174;2023-06-26T10:58:00;15.23;;;11.10;;
3297;SDS011;1661;53.572;10.174;2023-06-26T11:00:28;11.40;;;9.57;;
3297;SDS011;1661;53.572;10.174;2023-06-26T11:02:55;10.97;;;9.87;;
3297;SDS011;1661;53.572;10.174;2023-06-26T11:05:25;9.97;;;9.10;;
3297;SDS011;1661;53.572;10.174;2023-06-26T11:08:02;11.80;;;9.60;;
3297;SDS011;1661;53.572;10.174;2023-06-26T11:10:29;10.07;;;9.17;;
3297;SDS011;1661;53.572;10.174;2023-06-26T11:13:15;11.60;;;9.50;;
3297;SDS011;1661;53.572;10.174;2023-06-26T11:15:44;11.03;;;9.97;;
3297;SDS011;1661;53.572;10.174;2023-06-26T11:18:12;11.07;;;9.90;;
3297;SDS011;1661;53.572;10.174;2023-06-26T11:20:40;11.03;;;10.00;;
3297;SDS011;1661;53.572;10.174;2023-06-26T11:23:07;9.20;;;8.40;;
3297;SDS011;1661;53.572;10.174;2023-06-26T11:25:35;12.60;;;10.57;;
3297;SDS011;1661;53.572;10.174;2023-06-26T11:28:02;10.10;;;9.17;;
3297;SDS011;1661;53.572;10.174;2023-06-26T11:30:31;13.77;;;10.57;;
3297;SDS011;1661;53.572;10.174;2023-06-26T11:33:04;11.60;;;9.50;;
3297;SDS011;1661;53.572;10.174;2023-06-26T11:35:32;10.77;;;9.67;;
3297;SDS011;1661;53.572;10.174;2023-06-26T11:37:59;22.33;;;10.37;;
3297;SDS011;1661;53.572;10.174;2023-06-26T11:40:30;16.13;;;10.73;;
3297;SDS011;1661;53.572;10.174;2023-06-26T11:42:57;14.20;;;8.10;;
3297;SDS011;1661;53.572;10.174;2023-06-26T11:45:27;14.40;;;8.63;;
3297;SDS011;1661;53.572;10.174;2023-06-26T11:47:56;9.87;;;8.60;;
3297;SDS011;1661;53.572;10.174;2023-06-26T11:50:24;19.00;;;9.10;;
3297;SDS011;1661;53.572;10.174;2023-06-26T11:52:55;16.43;;;9.70;;
3297;SDS011;1661;53.572;10.174;2023-06-26T11:55:22;16.73;;;8.67;;
3297;SDS011;1661;53.572;10.174;2023-06-26T11:57:49;10.93;;;7.47;;
3297;SDS011;1661;53.572;10.174;2023-06-26T12:00:16;14.40;;;7.67;;
3297;SDS011;1661;53.572;10.174;2023-06-26T12:02:44;14.73;;;7.00;;
3297;SDS011;1661;53.572;10.174;2023-06-26T12:05:13;15.03;;;7.27;;
3297;SDS011;1661;53.572;10.174;2023-06-26T12:07:41;13.80;;;6.90;;
3297;SDS011;1661;53.572;10.174;2023-06-26T12:10:10;13.67;;;5.80;;
3297;SDS011;1661;53.572;10.174;2023-06-26T12:12:38;19.83;;;7.47;;
3297;SDS011;1661;53.572;10.174;2023-06-26T12:15:06;11.30;;;5.63;;
3297;SDS011;1661;53.572;10.174;2023-06-26T12:17:34;12.57;;;5.70;;
3297;SDS011;1661;53.572;10.174;2023-06-26T12:20:04;7.07;;;4.40;;
3297;SDS011;1661;53.572;10.174;2023-06-26T12:22:44;9.37;;;5.40;;
3297;SDS011;1661;53.572;10.174;2023-06-26T12:25:12;14.93;;;5.23;;
3297;SDS011;1661;53.572;10.174;2023-06-26T12:27:39;7.43;;;5.10;;
3297;SDS011;1661;53.572;10.174;2023-06-26T12:30:06;7.70;;;5.03;;
3297;SDS011;1661;53.572;10.174;2023-06-26T12:32:34;8.03;;;3.97;;
3297;SDS011;1661;53.572;10.174;2023-06-26T12:35:01;12.20;;;4.53;;
3297;SDS011;1661;53.572;10.174;2023-06-26T12:37:28;13.27;;;5.10;;
3297;SDS011;1661;53.572;10.174;2023-06-26T12:39:57;7.90;;;4.60;;
3297;SDS011;1661;53.572;10.174;2023-06-26T12:42:24;13.43;;;5.03;;
3297;SDS011;1661;53.572;10.174;2023-06-26T12:44:52;12.80;;;4.57;;
3297;SDS011;1661;53.572;10.174;2023-06-26T12:47:23;8.90;;;5.20;;
3297;SDS011;1661;53.572;10.174;2023-06-26T12:49:52;7.17;;;4.17;;
3297;SDS011;1661;53.572;10.174;2023-06-26T12:52:19;5.77;;;3.90;;
3297;SDS011;1661;53.572;10.174;2023-06-26T12:54:47;9.63;;;4.60;;
3297;SDS011;1661;53.572;10.174;2023-06-26T12:57:19;5.57;;;3.70;;
3297;SDS011;1661;53.572;10.174;2023-06-26T12:59:46;12.53;;;4.40;;
3297;SDS011;1661;53.572;10.174;2023-06-26T13:02:13;9.10;;;4.80;;
3297;SDS011;1661;53.572;10.174;2023-06-26T13:04:40;12.47;;;3.80;;
3297;SDS011;1661;53.572;10.174;2023-06-26T13:07:09;10.20;;;4.03;;
3297;SDS011;1661;53.572;10.174;2023-06-26T13:09:36;5.10;;;3.27;;
3297;SDS011;1661;53.572;10.174;2023-06-26T13:12:04;6.77;;;3.37;;
3297;SDS011;1661;53.572;10.174;2023-06-26T13:14:33;6.10;;;3.50;;
3297;SDS011;1661;53.572;10.174;2023-06-26T13:17:00;8.47;;;3.47;;
3297;SDS011;1661;53.572;10.174;2023-06-26T13:19:27;5.67;;;3.50;;
3297;SDS011;1661;53.572;10.174;2023-06-26T13:21:54;7.60;;;3.40;;
3297;SDS011;1661;53.572;10.174;2023-06-26T13:29:33;3.50;;;2.90;;
3297;SDS011;1661;53.572;10.174;2023-06-26T13:32:00;13.13;;;3.47;;
3297;SDS011;1661;53.572;10.174;2023-06-26T13:34:27;10.93;;;3.30;;
3297;SDS011;1661;53.572;10.174;2023-06-26T13:36:54;8.70;;;3.30;;
3297;SDS011;1661;53.572;10.174;2023-06-26T13:39:21;3.20;;;2.63;;
3297;SDS011;1661;53.572;10.174;2023-06-26T13:41:47;6.27;;;3.10;;
3297;SDS011;1661;53.572;10.174;2023-06-26T13:44:14;5.70;;;2.93;;
3297;SDS011;1661;53.572;10.174;2023-06-26T13:46:42;6.40;;;3.47;;
3297;SDS011;1661;53.572;10.174;2023-06-26T13:49:09;8.87;;;3.27;;
3297;SDS011;1661;53.572;10.174;2023-06-26T13:51:36;5.93;;;2.93;;
3297;SDS011;1661;53.572;10.174;2023-06-26T13:54:03;8.67;;;3.10;;
3297;SDS011;1661;53.572;10.174;2023-06-26T13:56:29;6.57;;;3.43;;
3297;SDS011;1661;53.572;10.174;2023-06-26T13:58:56;5.93;;;2.60;;
3297;SDS011;1661;53.572;10.174;2023-06-26T14:01:23;4.83;;;2.83;;
3297;SDS011;1661;53.572;10.174;2023-06-26T14:03:51;5.67;;;2.80;;
3297;SDS011;1661;53.572;10.174;2023-06-26T14:06:18;5.63;;;2.67;;
3297;SDS011;1661;53.572;10.174;2023-06-26T14:08:45;7.17;;;3.10;;
3297;SDS011;1661;53.572;10.174;2023-06-26T14:11:11;3.83;;;2.60;;
3297;SDS011;1661;53.572;10.174;2023-06-26T14:13:40;3.20;;;2.33;;
3297;SDS011;1661;53.572;10.174;2023-06-26T14:16:07;6.50;;;3.00;;
3297;SDS011;1661;53.572;10.174;2023-06-26T14:18:34;6.00;;;3.90;;
3297;SDS011;1661;53.572;10.174;2023-06-26T14:21:02;9.17;;;3.10;;
3297;SDS011;1661;53.572;10.174;2023-06-26T14:23:29;5.50;;;2.73;;
3297;SDS011;1661;53.572;10.174;2023-06-26T14:25:56;7.83;;;3.20;;
3297;SDS011;1661;53.572;10.174;2023-06-26T14:28:22;3.93;;;2.37;;
3297;SDS011;1661;53.572;10.174;2023-06-26T14:30:49;4.20;;;2.70;;
3297;SDS011;1661;53.572;10.174;2023-06-26T14:33:16;5.63;;;2.77;;
3297;SDS011;1661;53.572;10.174;2023-06-26T14:35:43;3.40;;;2.80;;
3297;SDS011;1661;53.572;10.174;2023-06-26T14:38:11;6.30;;;2.07;;
3297;SDS011;1661;53.572;10.174;2023-06-26T14:40:38;4.67;;;2.97;;
3297;SDS011;1661;53.572;10.174;2023-06-26T14:43:04;6.63;;;3.03;;
3297;SDS011;1661;53.572;10.174;2023-06-26T14:45:31;4.00;;;3.30;;
3297;SDS011;1661;53.572;10.174;2023-06-26T14:47:58;2.43;;;1.87;;
3297;SDS011;1661;53.572;10.174;2023-06-26T14:50:24;3.80;;;2.60;;
3297;SDS011;1661;53.572;10.174;2023-06-26T14:52:51;3.47;;;2.63;;